sensor_id;sensor_type;location;lat;lon;timestamp;temperature;humidity
21799;DHT22;24973;47.178;15.316;2023-05-29T18:40:05;19.50;84.10
21799;DHT22;24973;47.178;15.316;2023-05-29T18:42:57;19.40;84.80
21799;DHT22;24973;47.178;15.316;2023-05-29T18:45:46;19.30;85.70
21799;DHT22;24973;47.178;15.316;2023-05-29T18:48:35;19.20;86.40
21799;DHT22;24973;47.178;15.316;2023-05-29T18:51:25;19.00;86.60
21799;DHT22;24973;47.178;15.316;2023-05-29T18:54:13;18.90;88.80
21799;DHT22;24973;47.178;15.316;2023-05-29T18:57:04;18.80;88.30
21799;DHT22;24973;47.178;15.316;2023-05-29T18:59:56;18.70;86.20
21799;DHT22;24973;47.178;15.316;2023-05-29T19:02:49;18.80;89.60
21799;DHT22;24973;47.178;15.316;2023-05-29T19:05:39;18.70;89.40
21799;DHT22;24973;47.178;15.316;2023-05-29T19:08:30;18.70;87.80
21799;DHT22;24973;47.178;15.316;2023-05-29T19:11:19;18.70;88.70
21799;DHT22;24973;47.178;15.316;2023-05-29T19:14:08;18.60;88.10
21799;DHT22;24973;47.178;15.316;2023-05-29T19:16:59;18.60;88.00
21799;DHT22;24973;47.178;15.316;2023-05-29T19:19:48;18.60;87.70
21799;DHT22;24973;47.178;15.316;2023-05-29T19:22:37;18.60;90.00
21799;DHT22;24973;47.178;15.316;2023-05-29T19:25:26;18.50;90.00
21799;DHT22;24973;47.178;15.316;2023-05-29T19:28:15;18.60;89.10
21799;DHT22;24973;47.178;15.316;2023-05-29T19:31:04;18.50;90.00
21799;DHT22;24973;47.178;15.316;2023-05-29T19:33:55;18.40;90.30
21799;DHT22;24973;47.178;15.316;2023-05-29T19:36:44;18.40;90.80
21799;DHT22;24973;47.178;15.316;2023-05-29T19:39:33;18.30;91.10
21799;DHT22;24973;47.178;15.316;2023-05-29T19:42:22;18.30;91.40
21799;DHT22;24973;47.178;15.316;2023-05-29T19:45:13;18.20;91.90
21799;DHT22;24973;47.178;15.316;2023-05-29T19:48:02;18.00;92.80
21799;DHT22;24973;47.178;15.316;2023-05-29T19:50:52;17.90;93.40
21799;DHT22;24973;47.178;15.316;2023-05-29T19:53:41;17.80;93.40
21799;DHT22;24973;47.178;15.316;2023-05-29T19:56:30;17.80;93.50
21799;DHT22;24973;47.178;15.316;2023-05-29T19:59:19;17.70;94.20
21799;DHT22;24973;47.178;15.316;2023-05-29T20:02:09;17.70;94.00
21799;DHT22;24973;47.178;15.316;2023-05-29T20:04:59;17.70;93.50
21799;DHT22;24973;47.178;15.316;2023-05-29T20:07:49;17.70;93.60
21799;DHT22;24973;47.178;15.316;2023-05-29T20:10:38;17.60;93.70
21799;DHT22;24973;47.178;15.316;2023-05-29T20:13:27;17.50;93.60
21799;DHT22;24973;47.178;15.316;2023-05-29T20:16:16;17.50;93.40
21799;DHT22;24973;47.178;15.316;2023-05-29T20:19:05;16.30;94.00
21799;DHT22;24973;47.178;15.316;2023-05-29T20:21:54;17.20;95.00
21799;DHT22;24973;47.178;15.316;2023-05-29T20:24:44;17.20;95.20
21799;DHT22;24973;47.178;15.316;2023-05-29T20:27:33;17.10;95.30
21799;DHT22;24973;47.178;15.316;2023-05-29T20:30:22;16.90;95.70
21799;DHT22;24973;47.178;15.316;2023-05-29T20:33:11;16.70;96.00
21799;DHT22;24973;47.178;15.316;2023-05-29T20:36:00;16.60;96.50
21799;DHT22;24973;47.178;15.316;2023-05-29T20:38:49;16.50;96.80
21799;DHT22;24973;47.178;15.316;2023-05-29T20:41:40;16.50;97.40
21799;DHT22;24973;47.178;15.316;2023-05-29T20:44:29;16.40;97.60
21799;DHT22;24973;47.178;15.316;2023-05-29T20:47:18;16.20;98.00
21799;DHT22;24973;47.178;15.316;2023-05-29T20:50:09;16.10;98.40
21799;DHT22;24973;47.178;15.316;2023-05-29T20:52:58;16.00;98.50
21799;DHT22;24973;47.178;15.316;2023-05-29T20:55:47;16.00;99.30
21799;DHT22;24973;47.178;15.316;2023-05-29T20:58:38;15.90;99.30
21799;DHT22;24973;47.178;15.316;2023-05-29T21:01:27;15.80;99.70
21799;DHT22;24973;47.178;15.316;2023-05-29T21:04:16;15.70;99.70
21799;DHT22;24973;47.178;15.316;2023-05-29T21:07:06;15.60;99.90
